sensor_id;sensor_type;location;lat;lon;timestamp;P1;durP1;ratioP1;P2;durP2;ratioP2
26594;SDS011;14238;49.496;8.154;2023-11-22T00:01:19;7.00;;;6.20;;
26594;SDS011;14238;49.496;8.154;2023-11-22T00:03:45;6.23;;;5.73;;
26594;SDS011;14238;49.496;8.154;2023-11-22T00:06:10;6.40;;;5.80;;
26594;SDS011;14238;49.496;8.154;2023-11-22T00:08:37;5.97;;;5.43;;
26594;SDS011;14238;49.496;8.154;2023-11-22T00:11:02;6.30;;;5.70;;
26594;SDS011;14238;49.496;8.154;2023-11-22T00:13:30;6.50;;;5.90;;
26594;SDS011;14238;49.496;8.154;2023-11-22T00:15:57;6.47;;;5.90;;
26594;SDS011;14238;49.496;8.154;2023-11-22T00:18:22;8.03;;;7.23;;
26594;SDS011;14238;49.496;8.154;2023-11-22T00:20:49;6.77;;;6.17;;
26594;SDS011;14238;49.496;8.154;2023-11-22T00:23:14;6.40;;;5.90;;
26594;SDS011;14238;49.496;8.154;2023-11-22T00:25:40;6.20;;;5.70;;
26594;SDS011;14238;49.496;8.154;2023-11-22T00:28:05;8.93;;;6.10;;
26594;SDS011;14238;49.496;8.154;2023-11-22T00:30:31;6.20;;;5.43;;
26594;SDS011;14238;49.496;8.154;2023-11-22T00:32:57;6.00;;;4.60;;
26594;SDS011;14238;49.496;8.154;2023-11-22T00:35:23;4.07;;;3.77;;
26594;SDS011;14238;49.496;8.154;2023-11-22T00:37:48;4.23;;;3.93;;
26594;SDS011;14238;49.496;8.154;2023-11-22T00:40:14;3.90;;;3.60;;
26594;SDS011;14238;49.496;8.154;2023-11-22T00:42:39;3.80;;;3.50;;
26594;SDS011;14238;49.496;8.154;2023-11-22T00:45:07;3.97;;;3.67;;
26594;SDS011;14238;49.496;8.154;2023-11-22T00:47:34;4.33;;;4.03;;
26594;SDS011;14238;49.496;8.154;2023-11-22T00:50:00;4.23;;;3.83;;
26594;SDS011;14238;49.496;8.154;2023-11-22T00:52:26;3.90;;;3.60;;
26594;SDS011;14238;49.496;8.154;2023-11-22T00:54:52;3.47;;;3.27;;
26594;SDS011;14238;49.496;8.154;2023-11-22T00:57:18;3.47;;;3.17;;
26594;SDS011;14238;49.496;8.154;2023-11-22T00:59:43;3.10;;;2.90;;
26594;SDS011;14238;49.496;8.154;2023-11-22T01:02:09;3.30;;;3.00;;
26594;SDS011;14238;49.496;8.154;2023-11-22T01:04:34;3.27;;;3.07;;
26594;SDS011;14238;49.496;8.154;2023-11-22T01:07:02;3.43;;;3.23;;
26594;SDS011;14238;49.496;8.154;2023-11-22T01:09:31;3.23;;;3.00;;
26594;SDS011;14238;49.496;8.154;2023-11-22T01:11:58;3.17;;;2.90;;
26594;SDS011;14238;49.496;8.154;2023-11-22T01:14:23;2.90;;;2.70;;
26594;SDS011;14238;49.496;8.154;2023-11-22T01:16:49;3.00;;;2.80;;
26594;SDS011;14238;49.496;8.154;2023-11-22T01:19:15;3.23;;;3.00;;
26594;SDS011;14238;49.496;8.154;2023-11-22T01:21:41;3.03;;;2.87;;
26594;SDS011;14238;49.496;8.154;2023-11-22T01:24:06;3.10;;;2.90;;
26594;SDS011;14238;49.496;8.154;2023-11-22T01:26:32;2.97;;;2.77;;
26594;SDS011;14238;49.496;8.154;2023-11-22T01:28:58;2.93;;;2.73;;
26594;SDS011;14238;49.496;8.154;2023-11-22T01:31:25;2.63;;;2.43;;
26594;SDS011;14238;49.496;8.154;2023-11-22T01:33:52;2.77;;;2.57;;
26594;SDS011;14238;49.496;8.154;2023-11-22T01:36:18;2.60;;;2.40;;
26594;SDS011;14238;49.496;8.154;2023-11-22T01:38:44;2.73;;;2.53;;
26594;SDS011;14238;49.496;8.154;2023-11-22T01:41:11;2.90;;;2.70;;
26594;SDS011;14238;49.496;8.154;2023-11-22T01:43:39;2.97;;;2.57;;
26594;SDS011;14238;49.496;8.154;2023-11-22T01:46:06;2.70;;;2.50;;
26594;SDS011;14238;49.496;8.154;2023-11-22T01:48:33;2.63;;;2.43;;
26594;SDS011;14238;49.496;8.154;2023-11-22T01:51:00;2.77;;;2.57;;
26594;SDS011;14238;49.496;8.154;2023-11-22T01:53:26;3.07;;;2.77;;
26594;SDS011;14238;49.496;8.154;2023-11-22T01:55:51;3.20;;;2.90;;
26594;SDS011;14238;49.496;8.154;2023-11-22T01:58:17;3.93;;;3.50;;
26594;SDS011;14238;49.496;8.154;2023-11-22T02:00:44;3.60;;;3.30;;
26594;SDS011;14238;49.496;8.154;2023-11-22T02:03:13;2.93;;;2.73;;
26594;SDS011;14238;49.496;8.154;2023-11-22T02:05:40;3.20;;;2.93;;
26594;SDS011;14238;49.496;8.154;2023-11-22T02:08:07;3.37;;;3.07;;
26594;SDS011;14238;49.496;8.154;2023-11-22T02:10:36;3.17;;;2.97;;
26594;SDS011;14238;49.496;8.154;2023-11-22T02:13:02;3.20;;;3.00;;
26594;SDS011;14238;49.496;8.154;2023-11-22T02:15:33;3.70;;;3.40;;
26594;SDS011;14238;49.496;8.154;2023-11-22T02:17:59;3.90;;;3.60;;
26594;SDS011;14238;49.496;8.154;2023-11-22T02:20:25;4.30;;;3.90;;
26594;SDS011;14238;49.496;8.154;2023-11-22T02:22:50;4.03;;;3.70;;
26594;SDS011;14238;49.496;8.154;2023-11-22T02:25:18;3.93;;;3.60;;
26594;SDS011;14238;49.496;8.154;2023-11-22T02:27:44;3.73;;;3.43;;
26594;SDS011;14238;49.496;8.154;2023-11-22T02:30:09;4.37;;;4.07;;
26594;SDS011;14238;49.496;8.154;2023-11-22T02:32:36;3.30;;;3.10;;
26594;SDS011;14238;49.496;8.154;2023-11-22T02:35:02;4.33;;;3.93;;
26594;SDS011;14238;49.496;8.154;2023-11-22T02:37:32;4.43;;;4.10;;
26594;SDS011;14238;49.496;8.154;2023-11-22T02:40:00;4.33;;;4.03;;
26594;SDS011;14238;49.496;8.154;2023-11-22T02:42:30;5.40;;;4.97;;
26594;SDS011;14238;49.496;8.154;2023-11-22T02:44:56;5.20;;;4.70;;
26594;SDS011;14238;49.496;8.154;2023-11-22T02:47:22;5.10;;;4.70;;
26594;SDS011;14238;49.496;8.154;2023-11-22T02:49:48;5.00;;;4.60;;
26594;SDS011;14238;49.496;8.154;2023-11-22T02:52:14;5.90;;;5.40;;
26594;SDS011;14238;49.496;8.154;2023-11-22T02:54:43;5.37;;;4.60;;
26594;SDS011;14238;49.496;8.154;2023-11-22T02:57:10;5.93;;;5.37;;
26594;SDS011;14238;49.496;8.154;2023-11-22T02:59:36;5.87;;;5.00;;
26594;SDS011;14238;49.496;8.154;2023-11-22T03:02:02;6.00;;;5.40;;
26594;SDS011;14238;49.496;8.154;2023-11-22T03:04:28;6.00;;;5.40;;
26594;SDS011;14238;49.496;8.154;2023-11-22T03:06:53;6.63;;;6.03;;
26594;SDS011;14238;49.496;8.154;2023-11-22T03:09:20;6.40;;;5.80;;
26594;SDS011;14238;49.496;8.154;2023-11-22T03:11:47;5.57;;;5.00;;
26594;SDS011;14238;49.496;8.154;2023-11-22T03:14:13;6.10;;;5.60;;
26594;SDS011;14238;49.496;8.154;2023-11-22T03:16:39;6.20;;;5.60;;
26594;SDS011;14238;49.496;8.154;2023-11-22T03:19:05;5.93;;;5.37;;
26594;SDS011;14238;49.496;8.154;2023-11-22T03:21:31;6.67;;;6.07;;
26594;SDS011;14238;49.496;8.154;2023-11-22T03:23:57;6.93;;;6.23;;
26594;SDS011;14238;49.496;8.154;2023-11-22T03:26:25;6.27;;;5.77;;
26594;SDS011;14238;49.496;8.154;2023-11-22T03:28:50;6.43;;;5.83;;
26594;SDS011;14238;49.496;8.154;2023-11-22T03:31:16;6.10;;;5.60;;
26594;SDS011;14238;49.496;8.154;2023-11-22T03:33:42;6.07;;;5.50;;
26594;SDS011;14238;49.496;8.154;2023-11-22T03:36:07;6.23;;;5.60;;
26594;SDS011;14238;49.496;8.154;2023-11-22T03:38:33;6.63;;;5.77;;
26594;SDS011;14238;49.496;8.154;2023-11-22T03:40:58;5.10;;;4.70;;
26594;SDS011;14238;49.496;8.154;2023-11-22T03:43:24;5.40;;;4.97;;
26594;SDS011;14238;49.496;8.154;2023-11-22T03:45:49;6.17;;;5.30;;
26594;SDS011;14238;49.496;8.154;2023-11-22T03:48:15;5.23;;;4.73;;
26594;SDS011;14238;49.496;8.154;2023-11-22T03:50:40;5.37;;;4.97;;
26594;SDS011;14238;49.496;8.154;2023-11-22T03:53:06;5.47;;;4.97;;
26594;SDS011;14238;49.496;8.154;2023-11-22T03:55:32;4.97;;;4.57;;
26594;SDS011;14238;49.496;8.154;2023-11-22T03:57:57;5.20;;;4.80;;
26594;SDS011;14238;49.496;8.154;2023-11-22T04:00:23;6.00;;;5.40;;
26594;SDS011;14238;49.496;8.154;2023-11-22T04:02:49;6.60;;;6.00;;
26594;SDS011;14238;49.496;8.154;2023-11-22T04:05:14;6.50;;;5.77;;
26594;SDS011;14238;49.496;8.154;2023-11-22T04:07:40;5.40;;;4.97;;
26594;SDS011;14238;49.496;8.154;2023-11-22T04:10:06;5.27;;;4.73;;
26594;SDS011;14238;49.496;8.154;2023-11-22T04:12:32;5.60;;;5.20;;
26594;SDS011;14238;49.496;8.154;2023-11-22T04:14:57;6.77;;;5.07;;
26594;SDS011;14238;49.496;8.154;2023-11-22T04:17:23;5.10;;;4.60;;
26594;SDS011;14238;49.496;8.154;2023-11-22T04:19:49;5.20;;;4.33;;
26594;SDS011;14238;49.496;8.154;2023-11-22T04:22:14;4.97;;;4.57;;
26594;SDS011;14238;49.496;8.154;2023-11-22T04:24:39;5.67;;;5.10;;
26594;SDS011;14238;49.496;8.154;2023-11-22T04:27:05;6.30;;;5.53;;
26594;SDS011;14238;49.496;8.154;2023-11-22T04:29:30;4.17;;;3.87;;
26594;SDS011;14238;49.496;8.154;2023-11-22T04:31:56;5.77;;;5.00;;
26594;SDS011;14238;49.496;8.154;2023-11-22T04:34:22;6.10;;;5.60;;
26594;SDS011;14238;49.496;8.154;2023-11-22T04:36:47;4.90;;;4.50;;
26594;SDS011;14238;49.496;8.154;2023-11-22T04:39:13;4.90;;;4.40;;
26594;SDS011;14238;49.496;8.154;2023-11-22T04:41:38;6.30;;;5.70;;
26594;SDS011;14238;49.496;8.154;2023-11-22T04:44:04;5.43;;;4.93;;
26594;SDS011;14238;49.496;8.154;2023-11-22T04:46:30;7.83;;;7.13;;
26594;SDS011;14238;49.496;8.154;2023-11-22T04:48:56;7.00;;;6.30;;
26594;SDS011;14238;49.496;8.154;2023-11-22T04:51:22;6.10;;;5.50;;
26594;SDS011;14238;49.496;8.154;2023-11-22T04:53:49;6.67;;;5.77;;
26594;SDS011;14238;49.496;8.154;2023-11-22T04:56:15;6.23;;;5.60;;
26594;SDS011;14238;49.496;8.154;2023-11-22T04:58:42;6.03;;;5.27;;
26594;SDS011;14238;49.496;8.154;2023-11-22T05:01:08;5.37;;;4.97;;
26594;SDS011;14238;49.496;8.154;2023-11-22T05:03:37;5.23;;;4.80;;
26594;SDS011;14238;49.496;8.154;2023-11-22T05:06:03;5.37;;;4.97;;
26594;SDS011;14238;49.496;8.154;2023-11-22T05:08:29;5.07;;;4.67;;
26594;SDS011;14238;49.496;8.154;2023-11-22T05:10:55;4.83;;;4.43;;
26594;SDS011;14238;49.496;8.154;2023-11-22T05:13:20;5.47;;;5.00;;
26594;SDS011;14238;49.496;8.154;2023-11-22T05:15:46;5.23;;;4.73;;
26594;SDS011;14238;49.496;8.154;2023-11-22T05:18:11;5.80;;;4.90;;
26594;SDS011;14238;49.496;8.154;2023-11-22T05:20:37;5.80;;;5.30;;
26594;SDS011;14238;49.496;8.154;2023-11-22T05:23:03;6.93;;;6.23;;
26594;SDS011;14238;49.496;8.154;2023-11-22T05:25:29;6.50;;;5.90;;
26594;SDS011;14238;49.496;8.154;2023-11-22T05:27:55;6.17;;;5.40;;
26594;SDS011;14238;49.496;8.154;2023-11-22T05:30:21;6.20;;;5.07;;
26594;SDS011;14238;49.496;8.154;2023-11-22T05:32:47;9.03;;;5.60;;
26594;SDS011;14238;49.496;8.154;2023-11-22T05:35:14;5.10;;;4.60;;
26594;SDS011;14238;49.496;8.154;2023-11-22T05:37:39;4.67;;;4.00;;
26594;SDS011;14238;49.496;8.154;2023-11-22T05:40:05;4.50;;;4.10;;
26594;SDS011;14238;49.496;8.154;2023-11-22T05:42:34;3.90;;;3.60;;
26594;SDS011;14238;49.496;8.154;2023-11-22T05:45:00;5.10;;;4.70;;
26594;SDS011;14238;49.496;8.154;2023-11-22T05:47:26;5.60;;;4.53;;
26594;SDS011;14238;49.496;8.154;2023-11-22T05:49:52;5.73;;;5.13;;
26594;SDS011;14238;49.496;8.154;2023-11-22T05:52:17;5.60;;;5.10;;
26594;SDS011;14238;49.496;8.154;2023-11-22T05:54:44;5.43;;;4.93;;
26594;SDS011;14238;49.496;8.154;2023-11-22T05:57:10;6.97;;;6.27;;
26594;SDS011;14238;49.496;8.154;2023-11-22T05:59:36;6.03;;;5.23;;
26594;SDS011;14238;49.496;8.154;2023-11-22T06:02:01;5.20;;;4.70;;
26594;SDS011;14238;49.496;8.154;2023-11-22T06:04:27;6.40;;;4.93;;
26594;SDS011;14238;49.496;8.154;2023-11-22T06:06:52;5.57;;;5.07;;
26594;SDS011;14238;49.496;8.154;2023-11-22T06:09:18;5.67;;;5.20;;
26594;SDS011;14238;49.496;8.154;2023-11-22T06:11:43;5.53;;;5.03;;
26594;SDS011;14238;49.496;8.154;2023-11-22T06:14:09;5.97;;;5.47;;
26594;SDS011;14238;49.496;8.154;2023-11-22T06:16:35;7.43;;;5.10;;
26594;SDS011;14238;49.496;8.154;2023-11-22T06:19:01;5.30;;;4.80;;
26594;SDS011;14238;49.496;8.154;2023-11-22T06:21:26;6.50;;;5.73;;
26594;SDS011;14238;49.496;8.154;2023-11-22T06:23:52;6.70;;;6.00;;
26594;SDS011;14238;49.496;8.154;2023-11-22T06:26:20;6.93;;;6.23;;
26594;SDS011;14238;49.496;8.154;2023-11-22T06:28:45;7.53;;;6.77;;
26594;SDS011;14238;49.496;8.154;2023-11-22T06:31:14;6.23;;;5.70;;
26594;SDS011;14238;49.496;8.154;2023-11-22T06:33:39;5.80;;;5.30;;
26594;SDS011;14238;49.496;8.154;2023-11-22T06:36:05;6.83;;;6.13;;
26594;SDS011;14238;49.496;8.154;2023-11-22T06:38:31;5.10;;;4.60;;
26594;SDS011;14238;49.496;8.154;2023-11-22T06:40:56;8.80;;;5.47;;
26594;SDS011;14238;49.496;8.154;2023-11-22T06:43:22;6.80;;;6.20;;
26594;SDS011;14238;49.496;8.154;2023-11-22T06:45:47;7.20;;;6.50;;
26594;SDS011;14238;49.496;8.154;2023-11-22T06:48:13;7.70;;;5.67;;
26594;SDS011;14238;49.496;8.154;2023-11-22T06:50:38;7.40;;;6.10;;
26594;SDS011;14238;49.496;8.154;2023-11-22T06:53:04;8.20;;;7.20;;
26594;SDS011;14238;49.496;8.154;2023-11-22T06:55:31;7.47;;;6.77;;
26594;SDS011;14238;49.496;8.154;2023-11-22T06:57:58;8.27;;;6.67;;
26594;SDS011;14238;49.496;8.154;2023-11-22T07:00:24;6.67;;;6.07;;
26594;SDS011;14238;49.496;8.154;2023-11-22T07:02:51;6.40;;;5.80;;
26594;SDS011;14238;49.496;8.154;2023-11-22T07:05:17;11.93;;;6.67;;
26594;SDS011;14238;49.496;8.154;2023-11-22T07:07:43;7.00;;;6.30;;
26594;SDS011;14238;49.496;8.154;2023-11-22T07:10:09;6.67;;;6.07;;
26594;SDS011;14238;49.496;8.154;2023-11-22T07:12:36;6.53;;;5.83;;
26594;SDS011;14238;49.496;8.154;2023-11-22T07:15:02;6.97;;;6.27;;
26594;SDS011;14238;49.496;8.154;2023-11-22T07:17:28;6.90;;;6.20;;
26594;SDS011;14238;49.496;8.154;2023-11-22T07:19:54;6.90;;;6.30;;
26594;SDS011;14238;49.496;8.154;2023-11-22T07:22:19;7.80;;;6.60;;
26594;SDS011;14238;49.496;8.154;2023-11-22T07:24:47;7.63;;;6.83;;
26594;SDS011;14238;49.496;8.154;2023-11-22T07:27:16;7.97;;;6.40;;
26594;SDS011;14238;49.496;8.154;2023-11-22T07:29:42;7.83;;;7.03;;
26594;SDS011;14238;49.496;8.154;2023-11-22T07:32:09;7.20;;;6.50;;
26594;SDS011;14238;49.496;8.154;2023-11-22T07:34:35;9.90;;;6.80;;
26594;SDS011;14238;49.496;8.154;2023-11-22T07:37:01;6.83;;;6.23;;
26594;SDS011;14238;49.496;8.154;2023-11-22T07:39:28;7.50;;;6.80;;
26594;SDS011;14238;49.496;8.154;2023-11-22T07:41:54;7.57;;;6.50;;
26594;SDS011;14238;49.496;8.154;2023-11-22T07:44:20;8.03;;;7.13;;
26594;SDS011;14238;49.496;8.154;2023-11-22T07:46:46;8.37;;;6.77;;
26594;SDS011;14238;49.496;8.154;2023-11-22T07:49:12;7.10;;;6.50;;
26594;SDS011;14238;49.496;8.154;2023-11-22T07:51:38;6.83;;;6.23;;
26594;SDS011;14238;49.496;8.154;2023-11-22T07:54:04;8.57;;;7.77;;
26594;SDS011;14238;49.496;8.154;2023-11-22T07:56:30;8.00;;;6.37;;
26594;SDS011;14238;49.496;8.154;2023-11-22T07:58:57;7.17;;;6.47;;
26594;SDS011;14238;49.496;8.154;2023-11-22T08:01:23;7.10;;;6.40;;
26594;SDS011;14238;49.496;8.154;2023-11-22T08:03:50;8.23;;;6.90;;
26594;SDS011;14238;49.496;8.154;2023-11-22T08:06:16;7.27;;;5.77;;
26594;SDS011;14238;49.496;8.154;2023-11-22T08:08:42;6.40;;;5.80;;
26594;SDS011;14238;49.496;8.154;2023-11-22T08:11:10;5.87;;;5.23;;
26594;SDS011;14238;49.496;8.154;2023-11-22T08:13:40;6.23;;;5.63;;
26594;SDS011;14238;49.496;8.154;2023-11-22T08:16:08;6.70;;;6.00;;
26594;SDS011;14238;49.496;8.154;2023-11-22T08:18:33;6.63;;;6.03;;
26594;SDS011;14238;49.496;8.154;2023-11-22T08:20:59;5.77;;;5.17;;
26594;SDS011;14238;49.496;8.154;2023-11-22T08:23:25;5.30;;;4.80;;
26594;SDS011;14238;49.496;8.154;2023-11-22T08:25:51;5.13;;;4.73;;
26594;SDS011;14238;49.496;8.154;2023-11-22T08:28:18;4.60;;;4.20;;
26594;SDS011;14238;49.496;8.154;2023-11-22T08:30:43;4.83;;;4.20;;
26594;SDS011;14238;49.496;8.154;2023-11-22T08:33:09;4.70;;;4.30;;
26594;SDS011;14238;49.496;8.154;2023-11-22T08:35:35;4.23;;;3.90;;
26594;SDS011;14238;49.496;8.154;2023-11-22T08:38:01;3.97;;;3.67;;
26594;SDS011;14238;49.496;8.154;2023-11-22T08:40:28;4.83;;;4.43;;
26594;SDS011;14238;49.496;8.154;2023-11-22T08:42:53;4.73;;;4.33;;
26594;SDS011;14238;49.496;8.154;2023-11-22T08:45:20;4.30;;;4.00;;
26594;SDS011;14238;49.496;8.154;2023-11-22T08:47:45;4.53;;;4.13;;
26594;SDS011;14238;49.496;8.154;2023-11-22T08:50:11;4.60;;;4.20;;
26594;SDS011;14238;49.496;8.154;2023-11-22T08:52:40;4.47;;;4.17;;
26594;SDS011;14238;49.496;8.154;2023-11-22T08:55:06;4.23;;;3.90;;
26594;SDS011;14238;49.496;8.154;2023-11-22T08:57:36;4.90;;;4.50;;
26594;SDS011;14238;49.496;8.154;2023-11-22T09:00:03;4.17;;;3.77;;
26594;SDS011;14238;49.496;8.154;2023-11-22T09:02:34;4.90;;;4.50;;
26594;SDS011;14238;49.496;8.154;2023-11-22T09:05:04;4.13;;;3.83;;
26594;SDS011;14238;49.496;8.154;2023-11-22T09:07:32;4.20;;;3.60;;
26594;SDS011;14238;49.496;8.154;2023-11-22T09:10:03;4.30;;;3.90;;
26594;SDS011;14238;49.496;8.154;2023-11-22T09:12:34;4.23;;;3.93;;
26594;SDS011;14238;49.496;8.154;2023-11-22T09:15:01;11.57;;;4.73;;
26594;SDS011;14238;49.496;8.154;2023-11-22T09:17:28;4.93;;;4.13;;
26594;SDS011;14238;49.496;8.154;2023-11-22T09:19:54;4.43;;;4.03;;
26594;SDS011;14238;49.496;8.154;2023-11-22T09:22:21;4.50;;;4.20;;
26594;SDS011;14238;49.496;8.154;2023-11-22T09:24:46;5.70;;;5.20;;
26594;SDS011;14238;49.496;8.154;2023-11-22T09:27:12;4.90;;;4.40;;
26594;SDS011;14238;49.496;8.154;2023-11-22T09:29:41;4.10;;;3.70;;
26594;SDS011;14238;49.496;8.154;2023-11-22T09:32:07;4.80;;;4.40;;
26594;SDS011;14238;49.496;8.154;2023-11-22T09:34:32;4.17;;;3.87;;
26594;SDS011;14238;49.496;8.154;2023-11-22T09:37:00;4.23;;;3.83;;
26594;SDS011;14238;49.496;8.154;2023-11-22T09:39:25;4.80;;;4.40;;
26594;SDS011;14238;49.496;8.154;2023-11-22T09:41:52;5.33;;;4.27;;
26594;SDS011;14238;49.496;8.154;2023-11-22T09:44:19;5.00;;;3.90;;
26594;SDS011;14238;49.496;8.154;2023-11-22T09:46:46;4.73;;;4.33;;
26594;SDS011;14238;49.496;8.154;2023-11-22T09:49:14;4.20;;;3.80;;
26594;SDS011;14238;49.496;8.154;2023-11-22T09:51:49;4.60;;;4.20;;
26594;SDS011;14238;49.496;8.154;2023-11-22T09:54:19;5.20;;;4.67;;
26594;SDS011;14238;49.496;8.154;2023-11-22T09:56:48;5.10;;;4.70;;
26594;SDS011;14238;49.496;8.154;2023-11-22T09:59:16;6.23;;;4.40;;
26594;SDS011;14238;49.496;8.154;2023-11-22T10:01:44;4.67;;;4.27;;
26594;SDS011;14238;49.496;8.154;2023-11-22T10:04:10;4.50;;;4.10;;
26594;SDS011;14238;49.496;8.154;2023-11-22T10:06:36;4.83;;;4.10;;
26594;SDS011;14238;49.496;8.154;2023-11-22T10:09:03;4.83;;;4.43;;
26594;SDS011;14238;49.496;8.154;2023-11-22T10:11:34;5.13;;;4.73;;
26594;SDS011;14238;49.496;8.154;2023-11-22T10:14:01;5.20;;;4.77;;
26594;SDS011;14238;49.496;8.154;2023-11-22T10:16:27;5.17;;;4.67;;
26594;SDS011;14238;49.496;8.154;2023-11-22T10:18:52;4.97;;;4.57;;
26594;SDS011;14238;49.496;8.154;2023-11-22T10:26:21;5.50;;;5.00;;
26594;SDS011;14238;49.496;8.154;2023-11-22T10:28:51;6.30;;;5.40;;
26594;SDS011;14238;49.496;8.154;2023-11-22T10:31:18;5.47;;;4.97;;
26594;SDS011;14238;49.496;8.154;2023-11-22T10:33:44;5.17;;;4.73;;
26594;SDS011;14238;49.496;8.154;2023-11-22T10:36:10;4.80;;;4.40;;
26594;SDS011;14238;49.496;8.154;2023-11-22T10:38:37;5.83;;;4.50;;
26594;SDS011;14238;49.496;8.154;2023-11-22T10:41:03;6.67;;;4.63;;
26594;SDS011;14238;49.496;8.154;2023-11-22T10:43:30;4.67;;;4.20;;
26594;SDS011;14238;49.496;8.154;2023-11-22T10:45:59;4.83;;;4.43;;
26594;SDS011;14238;49.496;8.154;2023-11-22T10:48:27;6.03;;;5.23;;
26594;SDS011;14238;49.496;8.154;2023-11-22T10:50:54;5.37;;;4.90;;
26594;SDS011;14238;49.496;8.154;2023-11-22T10:53:22;4.90;;;4.30;;
26594;SDS011;14238;49.496;8.154;2023-11-22T10:56:03;5.07;;;4.60;;
26594;SDS011;14238;49.496;8.154;2023-11-22T10:58:36;4.37;;;4.00;;
26594;SDS011;14238;49.496;8.154;2023-11-22T11:01:28;6.50;;;4.70;;
26594;SDS011;14238;49.496;8.154;2023-11-22T11:03:55;6.00;;;5.40;;
26594;SDS011;14238;49.496;8.154;2023-11-22T11:06:26;6.00;;;5.50;;
26594;SDS011;14238;49.496;8.154;2023-11-22T11:08:59;5.97;;;5.37;;
26594;SDS011;14238;49.496;8.154;2023-11-22T11:11:26;4.60;;;4.17;;
26594;SDS011;14238;49.496;8.154;2023-11-22T11:13:53;5.10;;;4.70;;
26594;SDS011;14238;49.496;8.154;2023-11-22T11:16:19;4.70;;;4.30;;
26594;SDS011;14238;49.496;8.154;2023-11-22T11:18:46;4.93;;;4.37;;
26594;SDS011;14238;49.496;8.154;2023-11-22T11:21:13;4.70;;;4.30;;
26594;SDS011;14238;49.496;8.154;2023-11-22T11:23:40;4.63;;;4.23;;
26594;SDS011;14238;49.496;8.154;2023-11-22T11:26:09;5.27;;;4.90;;
26594;SDS011;14238;49.496;8.154;2023-11-22T11:28:43;6.00;;;5.50;;
26594;SDS011;14238;49.496;8.154;2023-11-22T11:31:13;5.33;;;4.83;;
26594;SDS011;14238;49.496;8.154;2023-11-22T11:36:25;5.50;;;5.00;;
26594;SDS011;14238;49.496;8.154;2023-11-22T11:38:57;6.20;;;5.60;;
26594;SDS011;14238;49.496;8.154;2023-11-22T11:41:25;5.70;;;5.20;;
26594;SDS011;14238;49.496;8.154;2023-11-22T11:43:52;5.73;;;5.00;;
26594;SDS011;14238;49.496;8.154;2023-11-22T11:46:18;4.80;;;4.50;;
26594;SDS011;14238;49.496;8.154;2023-11-22T11:48:50;5.70;;;4.97;;
26594;SDS011;14238;49.496;8.154;2023-11-22T11:51:17;8.40;;;5.13;;
26594;SDS011;14238;49.496;8.154;2023-11-22T11:53:44;5.37;;;4.80;;
26594;SDS011;14238;49.496;8.154;2023-11-22T11:56:10;5.40;;;4.90;;
26594;SDS011;14238;49.496;8.154;2023-11-22T11:58:37;6.23;;;5.23;;
26594;SDS011;14238;49.496;8.154;2023-11-22T12:01:06;5.10;;;4.63;;
26594;SDS011;14238;49.496;8.154;2023-11-22T12:03:33;5.17;;;4.77;;
26594;SDS011;14238;49.496;8.154;2023-11-22T12:06:01;5.37;;;4.87;;
26594;SDS011;14238;49.496;8.154;2023-11-22T12:08:26;5.10;;;4.60;;
26594;SDS011;14238;49.496;8.154;2023-11-22T12:10:56;5.27;;;4.77;;
26594;SDS011;14238;49.496;8.154;2023-11-22T12:13:23;5.20;;;4.70;;
26594;SDS011;14238;49.496;8.154;2023-11-22T12:15:50;5.57;;;5.10;;
26594;SDS011;14238;49.496;8.154;2023-11-22T12:18:18;6.13;;;5.63;;
26594;SDS011;14238;49.496;8.154;2023-11-22T12:20:53;4.60;;;4.30;;
26594;SDS011;14238;49.496;8.154;2023-11-22T12:23:27;5.60;;;5.00;;
26594;SDS011;14238;49.496;8.154;2023-11-22T12:25:56;5.10;;;4.60;;
26594;SDS011;14238;49.496;8.154;2023-11-22T12:28:30;5.60;;;5.10;;
26594;SDS011;14238;49.496;8.154;2023-11-22T12:31:12;5.20;;;4.80;;
26594;SDS011;14238;49.496;8.154;2023-11-22T12:33:39;4.67;;;4.37;;
26594;SDS011;14238;49.496;8.154;2023-11-22T12:36:06;5.87;;;5.30;;
26594;SDS011;14238;49.496;8.154;2023-11-22T12:38:34;5.87;;;5.33;;
26594;SDS011;14238;49.496;8.154;2023-11-22T12:41:02;5.40;;;5.00;;
26594;SDS011;14238;49.496;8.154;2023-11-22T12:43:31;5.30;;;4.80;;
26594;SDS011;14238;49.496;8.154;2023-11-22T12:45:58;5.63;;;5.13;;
26594;SDS011;14238;49.496;8.154;2023-11-22T12:48:25;5.20;;;4.80;;
26594;SDS011;14238;49.496;8.154;2023-11-22T12:50:54;4.90;;;4.50;;
26594;SDS011;14238;49.496;8.154;2023-11-22T12:53:20;5.10;;;4.70;;
26594;SDS011;14238;49.496;8.154;2023-11-22T12:55:47;5.33;;;4.90;;
26594;SDS011;14238;49.496;8.154;2023-11-22T12:58:15;5.23;;;4.83;;
26594;SDS011;14238;49.496;8.154;2023-11-22T13:00:41;5.67;;;5.17;;
26594;SDS011;14238;49.496;8.154;2023-11-22T13:03:08;5.60;;;5.10;;
26594;SDS011;14238;49.496;8.154;2023-11-22T13:05:35;5.07;;;4.60;;
26594;SDS011;14238;49.496;8.154;2023-11-22T13:08:01;4.57;;;4.27;;
26594;SDS011;14238;49.496;8.154;2023-11-22T13:10:28;5.50;;;5.00;;
26594;SDS011;14238;49.496;8.154;2023-11-22T13:12:55;5.17;;;4.77;;
26594;SDS011;14238;49.496;8.154;2023-11-22T13:15:21;5.93;;;5.33;;
26594;SDS011;14238;49.496;8.154;2023-11-22T13:17:51;5.67;;;5.27;;
26594;SDS011;14238;49.496;8.154;2023-11-22T13:20:20;5.37;;;4.87;;
26594;SDS011;14238;49.496;8.154;2023-11-22T13:22:53;7.60;;;5.40;;
26594;SDS011;14238;49.496;8.154;2023-11-22T13:25:20;5.10;;;4.70;;
26594;SDS011;14238;49.496;8.154;2023-11-22T13:27:46;5.63;;;5.17;;
26594;SDS011;14238;49.496;8.154;2023-11-22T13:30:13;4.83;;;4.47;;
26594;SDS011;14238;49.496;8.154;2023-11-22T13:32:40;5.13;;;4.73;;
26594;SDS011;14238;49.496;8.154;2023-11-22T13:35:08;5.17;;;4.77;;
26594;SDS011;14238;49.496;8.154;2023-11-22T13:37:40;5.53;;;5.13;;
26594;SDS011;14238;49.496;8.154;2023-11-22T13:40:08;5.23;;;4.77;;
26594;SDS011;14238;49.496;8.154;2023-11-22T13:42:39;5.40;;;4.90;;
26594;SDS011;14238;49.496;8.154;2023-11-22T13:45:09;4.90;;;4.50;;
26594;SDS011;14238;49.496;8.154;2023-11-22T13:47:35;4.70;;;4.30;;
26594;SDS011;14238;49.496;8.154;2023-11-22T13:50:01;5.03;;;4.63;;
26594;SDS011;14238;49.496;8.154;2023-11-22T13:52:28;5.77;;;4.90;;
26594;SDS011;14238;49.496;8.154;2023-11-22T13:54:54;5.70;;;4.83;;
26594;SDS011;14238;49.496;8.154;2023-11-22T13:57:22;4.97;;;4.57;;
26594;SDS011;14238;49.496;8.154;2023-11-22T13:59:47;4.90;;;4.50;;
26594;SDS011;14238;49.496;8.154;2023-11-22T14:02:13;4.90;;;4.50;;
26594;SDS011;14238;49.496;8.154;2023-11-22T14:04:38;5.60;;;5.10;;
26594;SDS011;14238;49.496;8.154;2023-11-22T14:07:04;4.73;;;4.33;;
26594;SDS011;14238;49.496;8.154;2023-11-22T14:09:31;5.10;;;4.60;;
26594;SDS011;14238;49.496;8.154;2023-11-22T14:12:00;5.10;;;4.60;;
26594;SDS011;14238;49.496;8.154;2023-11-22T14:14:26;5.13;;;4.73;;
26594;SDS011;14238;49.496;8.154;2023-11-22T14:16:51;4.53;;;4.23;;
26594;SDS011;14238;49.496;8.154;2023-11-22T14:19:17;5.00;;;4.60;;
26594;SDS011;14238;49.496;8.154;2023-11-22T14:21:43;5.27;;;4.77;;
26594;SDS011;14238;49.496;8.154;2023-11-22T14:24:09;5.70;;;5.20;;
26594;SDS011;14238;49.496;8.154;2023-11-22T14:26:35;4.37;;;4.00;;
26594;SDS011;14238;49.496;8.154;2023-11-22T14:29:01;4.90;;;4.27;;
26594;SDS011;14238;49.496;8.154;2023-11-22T14:31:27;4.80;;;4.40;;
26594;SDS011;14238;49.496;8.154;2023-11-22T14:33:54;5.07;;;4.67;;
26594;SDS011;14238;49.496;8.154;2023-11-22T14:36:22;5.07;;;4.63;;
26594;SDS011;14238;49.496;8.154;2023-11-22T14:38:48;5.07;;;4.70;;
26594;SDS011;14238;49.496;8.154;2023-11-22T14:41:19;5.33;;;4.90;;
26594;SDS011;14238;49.496;8.154;2023-11-22T14:43:45;5.27;;;4.83;;
26594;SDS011;14238;49.496;8.154;2023-11-22T14:46:11;6.00;;;5.50;;
26594;SDS011;14238;49.496;8.154;2023-11-22T14:48:36;4.63;;;4.23;;
26594;SDS011;14238;49.496;8.154;2023-11-22T14:51:02;5.40;;;5.00;;
26594;SDS011;14238;49.496;8.154;2023-11-22T14:53:28;6.20;;;5.70;;